createdAt,value
2022-10-21T00:04:36.309Z,7.33
2022-10-21T00:09:42.067Z,8.27
2022-10-21T00:14:51.587Z,8.10
2022-10-21T00:19:58.678Z,7.10
2022-10-21T00:25:03.823Z,7.87
2022-10-21T00:30:14.759Z,8.07
2022-10-21T00:35:19.737Z,8.13
2022-10-21T00:40:24.485Z,7.93
2022-10-21T00:45:32.973Z,8.43
2022-10-21T00:50:42.741Z,7.93
2022-10-21T00:55:52.842Z,9.20
2022-10-21T01:01:03.155Z,8.20
2022-10-21T01:06:12.249Z,7.97
2022-10-21T01:11:20.923Z,8.73
2022-10-21T01:16:36.785Z,7.90
2022-10-21T01:21:46.585Z,8.00
2022-10-21T01:27:11.435Z,9.50
2022-10-21T01:32:30.729Z,7.87
2022-10-21T01:37:43.021Z,8.93
2022-10-21T01:42:55.525Z,9.07
2022-10-21T01:48:07.372Z,8.50
2022-10-21T01:53:15.712Z,8.80
2022-10-21T01:58:23.513Z,9.40
2022-10-21T02:03:34.309Z,8.77
2022-10-21T02:08:39.231Z,8.77
2022-10-21T02:13:48.525Z,8.87
2022-10-21T02:18:57.443Z,8.80
2022-10-21T02:24:08.038Z,8.83
2022-10-21T02:29:13.735Z,8.87
2022-10-21T02:34:32.769Z,8.93
2022-10-21T02:39:41.887Z,10.20
2022-10-21T02:44:46.587Z,8.97
2022-10-21T02:49:53.919Z,9.23
2022-10-21T02:54:58.727Z,9.57
2022-10-21T03:00:03.736Z,9.83
2022-10-21T03:05:13.116Z,10.00
2022-10-21T03:10:18.006Z,9.70
2022-10-21T03:15:22.851Z,11.07
2022-10-21T03:20:30.303Z,9.17
2022-10-21T03:25:37.330Z,9.77
2022-10-21T03:30:42.208Z,9.63
2022-10-21T03:35:49.556Z,10.03
2022-10-21T03:40:54.428Z,10.07
2022-10-21T03:45:59.183Z,10.23
2022-10-21T03:51:06.778Z,11.83
2022-10-21T03:56:11.673Z,10.43
2022-10-21T04:01:16.754Z,10.70
2022-10-21T04:06:24.192Z,10.63
2022-10-21T04:11:28.962Z,10.07
2022-10-21T04:16:34.346Z,10.27
2022-10-21T04:21:41.813Z,9.93
2022-10-21T04:26:46.894Z,10.70
2022-10-21T04:31:51.852Z,10.97
2022-10-21T04:37:01.211Z,11.10
2022-10-21T04:42:08.918Z,10.37
2022-10-21T04:47:13.825Z,10.80
2022-10-21T04:52:21.242Z,9.87
2022-10-21T04:57:26.147Z,10.57
2022-10-21T05:02:30.913Z,10.17
2022-10-21T05:07:38.402Z,11.00
2022-10-21T05:12:43.201Z,9.77
2022-10-21T05:17:48.099Z,10.87
2022-10-21T05:22:55.513Z,11.37
2022-10-21T05:28:00.613Z,10.67
2022-10-21T05:33:05.638Z,12.33
2022-10-21T05:38:13.163Z,11.87
2022-10-21T05:43:18.333Z,10.77
2022-10-21T05:48:23.358Z,11.57
2022-10-21T05:53:30.875Z,11.67
2022-10-21T05:58:37.354Z,11.97
2022-10-21T06:03:42.195Z,11.43
2022-10-21T06:08:49.915Z,11.83
2022-10-21T06:13:54.941Z,11.83
2022-10-21T06:18:59.724Z,11.37
2022-10-21T06:24:07.365Z,11.27
2022-10-21T06:29:12.293Z,10.67
2022-10-21T06:39:25.215Z,10.53
2022-10-21T06:44:30.190Z,10.47
2022-10-21T06:49:35.095Z,10.30
2022-10-21T06:54:42.977Z,10.30
2022-10-21T06:59:49.508Z,10.93
2022-10-21T07:04:54.842Z,9.97
2022-10-21T07:10:02.376Z,9.93
2022-10-21T07:15:08.289Z,10.53
2022-10-21T07:20:13.990Z,10.10
2022-10-21T07:25:21.660Z,8.90
2022-10-21T07:30:26.579Z,9.50
2022-10-21T07:35:31.658Z,9.27
2022-10-21T07:40:42.519Z,9.73
2022-10-21T07:45:47.975Z,9.40
2022-10-21T07:50:53.886Z,8.67
2022-10-21T07:56:10.829Z,8.97
2022-10-21T08:01:16.703Z,8.93
2022-10-21T08:06:21.626Z,8.37
2022-10-21T08:11:31.143Z,9.73
2022-10-21T08:16:36.055Z,9.87
2022-10-21T08:21:44.301Z,8.07
2022-10-21T08:26:52.310Z,8.10
2022-10-21T08:31:57.539Z,8.40
2022-10-21T08:37:02.689Z,8.17
2022-10-21T08:42:19.923Z,8.50
2022-10-21T08:47:36.016Z,7.97
2022-10-21T08:52:45.144Z,7.23
2022-10-21T08:57:58.040Z,7.43
2022-10-21T09:03:13.895Z,6.63
2022-10-21T09:08:29.868Z,7.10
2022-10-21T09:13:59.425Z,6.73
2022-10-21T09:19:14.251Z,6.27
2022-10-21T09:24:22.330Z,6.40
2022-10-21T09:29:33.951Z,6.30
2022-10-21T09:34:48.379Z,6.40
2022-10-21T09:40:00.729Z,6.77
2022-10-21T09:45:17.814Z,6.80
2022-10-21T09:50:23.163Z,7.17
2022-10-21T09:55:30.220Z,6.60
2022-10-21T10:00:50.249Z,6.37
2022-10-21T10:05:55.771Z,6.83
2022-10-21T10:11:15.389Z,5.97
2022-10-21T10:16:30.187Z,6.53
2022-10-21T10:21:35.041Z,7.23
2022-10-21T10:26:42.522Z,6.80
2022-10-21T10:31:53.613Z,7.03
2022-10-21T10:37:04.834Z,7.63
2022-10-21T10:42:10.990Z,6.67
2022-10-21T10:47:32.188Z,7.30
2022-10-21T10:52:37.428Z,7.50
2022-10-21T10:57:58.813Z,6.97
2022-10-21T11:03:26.304Z,7.17
2022-10-21T11:08:39.874Z,7.17
2022-10-21T11:13:47.178Z,7.57
2022-10-21T11:19:04.510Z,7.27
2022-10-21T11:24:42.477Z,8.53
2022-10-21T11:30:12.164Z,8.30
2022-10-21T11:35:35.504Z,8.60
2022-10-21T11:40:44.665Z,8.30
2022-10-21T11:46:01.126Z,9.37
2022-10-21T11:51:18.504Z,9.50
2022-10-21T11:56:38.622Z,8.90
2022-10-21T12:01:50.643Z,9.83
2022-10-21T12:07:15.555Z,10.17
2022-10-21T12:12:25.899Z,9.33
2022-10-21T12:17:35.110Z,9.03
2022-10-21T12:28:15.128Z,9.43
2022-10-21T12:33:28.029Z,10.37
2022-10-21T12:38:48.461Z,10.77
2022-10-21T12:44:05.458Z,11.27
2022-10-21T12:49:23.239Z,11.47
2022-10-21T12:54:32.150Z,13.00
2022-10-21T12:59:42.369Z,13.97
2022-10-21T13:04:50.618Z,15.33
2022-10-21T13:10:25.120Z,16.87
2022-10-21T13:15:50.356Z,17.33
2022-10-21T13:21:02.453Z,19.33
2022-10-21T13:26:18.881Z,19.33
2022-10-21T13:31:26.477Z,18.10
2022-10-21T13:36:40.141Z,19.00
2022-10-21T13:41:47.223Z,18.40
2022-10-21T13:46:54.776Z,18.30
2022-10-21T13:52:03.177Z,16.23
2022-10-21T13:57:10.033Z,17.43
2022-10-21T14:02:30.655Z,16.37
2022-10-21T14:07:35.881Z,17.20
2022-10-21T14:12:47.902Z,15.77
2022-10-21T14:18:02.052Z,17.03
2022-10-21T14:23:08.659Z,14.97
2022-10-21T14:28:14.936Z,14.60
2022-10-21T14:33:29.767Z,13.70
2022-10-21T14:38:43.284Z,14.63
2022-10-21T14:43:50.468Z,14.73
2022-10-21T14:49:03.785Z,14.00
2022-10-21T14:54:10.402Z,14.70
2022-10-21T14:59:22.904Z,13.77
2022-10-21T15:04:52.268Z,15.30
2022-10-21T15:10:17.848Z,15.53
2022-10-21T15:15:54.139Z,15.07
2022-10-21T15:21:04.309Z,14.33
2022-10-21T15:26:14.531Z,15.43
2022-10-21T15:31:21.466Z,15.73
2022-10-21T15:36:29.039Z,14.60
2022-10-21T15:41:34.240Z,14.47
2022-10-21T15:46:46.287Z,15.37
2022-10-21T15:51:54.940Z,15.53
2022-10-21T15:57:02.404Z,14.13
2022-10-21T16:02:09.474Z,15.33
2022-10-21T16:07:33.166Z,15.27
2022-10-21T16:12:38.978Z,15.23
2022-10-21T16:17:46.758Z,14.47
2022-10-21T16:22:55.774Z,14.27
2022-10-21T16:28:02.381Z,14.13
2022-10-21T16:33:07.409Z,14.97
2022-10-21T16:38:16.188Z,14.10
2022-10-21T16:43:21.083Z,15.20
2022-10-21T16:48:26.032Z,15.17
2022-10-21T16:53:33.405Z,14.37
2022-10-21T16:58:38.665Z,14.37
2022-10-21T17:03:43.542Z,15.00
2022-10-21T17:08:51.973Z,15.20
2022-10-21T17:13:57.000Z,14.97
2022-10-21T17:19:02.038Z,15.00
2022-10-21T17:24:10.855Z,14.57
2022-10-21T17:29:16.621Z,16.30
2022-10-21T17:34:33.449Z,15.57
2022-10-21T17:39:41.027Z,15.70
2022-10-21T17:44:45.996Z,15.87
2022-10-21T17:49:50.863Z,16.77
2022-10-21T17:54:58.344Z,16.57
2022-10-21T18:00:03.250Z,17.33
2022-10-21T18:05:12.294Z,19.87
2022-10-21T18:10:19.789Z,19.90
2022-10-21T18:15:27.808Z,20.07
2022-10-21T18:20:32.665Z,18.97
2022-10-21T18:25:41.844Z,21.67
2022-10-21T18:30:46.628Z,20.67
2022-10-21T18:35:51.977Z,20.23
2022-10-21T18:41:15.337Z,21.10
2022-10-21T18:46:24.886Z,21.17
2022-10-21T18:51:29.760Z,21.63
2022-10-21T18:56:41.451Z,21.20
2022-10-21T19:01:46.627Z,21.23
2022-10-21T19:06:51.945Z,21.23
2022-10-21T19:12:02.925Z,22.90
2022-10-21T19:17:10.022Z,23.40
2022-10-21T19:22:23.640Z,22.57
2022-10-21T19:27:31.306Z,22.77
2022-10-21T19:32:36.198Z,23.50
2022-10-21T19:37:41.058Z,23.23
2022-10-21T19:42:49.866Z,23.97
2022-10-21T19:47:56.109Z,23.00
2022-10-21T19:53:01.063Z,21.63
2022-10-21T19:58:08.674Z,21.57
2022-10-21T20:03:14.034Z,21.07
2022-10-21T20:08:21.249Z,20.70
2022-10-21T20:13:30.878Z,22.57
2022-10-21T20:18:35.796Z,22.40
2022-10-21T20:23:41.492Z,22.30
2022-10-21T20:28:51.061Z,22.27
2022-10-21T20:33:58.123Z,23.63
2022-10-21T20:39:04.610Z,24.43
2022-10-21T20:44:16.212Z,23.43
2022-10-21T20:49:21.101Z,24.53
2022-10-21T20:54:28.228Z,24.57
2022-10-21T20:59:35.847Z,26.00
2022-10-21T21:04:40.811Z,25.87
2022-10-21T21:10:01.795Z,26.23
2022-10-21T21:15:12.503Z,26.30
2022-10-21T21:20:17.612Z,24.57
2022-10-21T21:25:22.389Z,24.37
2022-10-21T21:30:29.781Z,25.30
2022-10-21T21:35:34.635Z,25.37
2022-10-21T21:40:39.407Z,26.17
2022-10-21T21:45:49.924Z,26.90
2022-10-21T21:50:55.225Z,27.37
2022-10-21T21:56:03.718Z,28.73
2022-10-21T22:01:16.324Z,29.23
2022-10-21T22:06:22.617Z,29.40
2022-10-21T22:11:29.829Z,31.23
2022-10-21T22:16:37.330Z,32.40
2022-10-21T22:21:42.655Z,32.40
2022-10-21T22:26:47.625Z,32.40
2022-10-21T22:31:55.105Z,30.97
2022-10-21T22:37:02.221Z,28.40
2022-10-21T22:42:07.257Z,27.20
2022-10-21T22:47:15.701Z,25.70
2022-10-21T22:52:22.136Z,26.57
2022-10-21T22:57:27.079Z,24.90
2022-10-21T23:02:34.641Z,24.07
2022-10-21T23:07:39.447Z,24.47
2022-10-21T23:12:44.331Z,23.33
2022-10-21T23:17:52.140Z,24.70
2022-10-21T23:22:57.014Z,23.30
2022-10-21T23:28:02.161Z,23.93
2022-10-21T23:33:09.585Z,25.43
2022-10-21T23:38:14.556Z,25.90
2022-10-21T23:43:23.003Z,26.93
2022-10-21T23:48:30.642Z,26.93
2022-10-21T23:53:35.631Z,27.37
2022-10-21T23:58:40.565Z,26.77
